sensor_id;sensor_type;location;lat;lon;timestamp;pressure;altitude;pressure_sealevel;temperature;humidity
62928;BME280;51070;52.236;-0.892;2024-01-16T00:02:21;100422.77;;;-1.53;72.01
62928;BME280;51070;52.236;-0.892;2024-01-16T00:04:47;100419.46;;;-1.49;71.85
62928;BME280;51070;52.236;-0.892;2024-01-16T00:07:12;100413.67;;;-1.45;72.00
62928;BME280;51070;52.236;-0.892;2024-01-16T00:09:38;100409.39;;;-1.39;72.18
62928;BME280;51070;52.236;-0.892;2024-01-16T00:12:04;100408.92;;;-1.32;72.07
62928;BME280;51070;52.236;-0.892;2024-01-16T00:14:30;100412.04;;;-1.26;72.13
62928;BME280;51070;52.236;-0.892;2024-01-16T00:16:55;100412.17;;;-1.24;71.30
62928;BME280;51070;52.236;-0.892;2024-01-16T00:19:20;100406.80;;;-1.26;71.29
62928;BME280;51070;52.236;-0.892;2024-01-16T00:21:46;100400.02;;;-1.26;71.57
62928;BME280;51070;52.236;-0.892;2024-01-16T00:24:12;100392.64;;;-1.25;71.40
62928;BME280;51070;52.236;-0.892;2024-01-16T00:26:38;100383.51;;;-1.24;71.03
62928;BME280;51070;52.236;-0.892;2024-01-16T00:29:04;100379.23;;;-1.25;71.23
62928;BME280;51070;52.236;-0.892;2024-01-16T00:31:29;100373.69;;;-1.24;71.29
62928;BME280;51070;52.236;-0.892;2024-01-16T00:33:55;100376.91;;;-1.24;71.34
62928;BME280;51070;52.236;-0.892;2024-01-16T00:36:20;100377.37;;;-1.25;71.21
62928;BME280;51070;52.236;-0.892;2024-01-16T00:38:45;100376.34;;;-1.28;71.16
62928;BME280;51070;52.236;-0.892;2024-01-16T00:41:12;100369.44;;;-1.29;71.44
62928;BME280;51070;52.236;-0.892;2024-01-16T00:43:40;100364.85;;;-1.29;71.35
62928;BME280;51070;52.236;-0.892;2024-01-16T00:46:05;100364.23;;;-1.28;71.53
62928;BME280;51070;52.236;-0.892;2024-01-16T00:48:30;100364.02;;;-1.29;71.50
62928;BME280;51070;52.236;-0.892;2024-01-16T00:50:56;100361.44;;;-1.29;71.41
62928;BME280;51070;52.236;-0.892;2024-01-16T00:53:21;100357.05;;;-1.29;71.57
62928;BME280;51070;52.236;-0.892;2024-01-16T00:55:47;100356.61;;;-1.28;71.87
62928;BME280;51070;52.236;-0.892;2024-01-16T00:58:12;100358.83;;;-1.28;71.36
62928;BME280;51070;52.236;-0.892;2024-01-16T01:00:37;100361.21;;;-1.28;71.69
62928;BME280;51070;52.236;-0.892;2024-01-16T01:03:04;100362.40;;;-1.28;72.02
62928;BME280;51070;52.236;-0.892;2024-01-16T01:05:29;100367.36;;;-1.27;72.24
62928;BME280;51070;52.236;-0.892;2024-01-16T01:07:55;100367.52;;;-1.28;72.19
62928;BME280;51070;52.236;-0.892;2024-01-16T01:10:21;100368.27;;;-1.29;71.90
62928;BME280;51070;52.236;-0.892;2024-01-16T01:12:46;100366.17;;;-1.27;72.32
62928;BME280;51070;52.236;-0.892;2024-01-16T01:15:12;100363.90;;;-1.23;72.31
62928;BME280;51070;52.236;-0.892;2024-01-16T01:17:39;100363.21;;;-1.19;72.47
62928;BME280;51070;52.236;-0.892;2024-01-16T01:20:06;100359.18;;;-1.14;72.69
62928;BME280;51070;52.236;-0.892;2024-01-16T01:22:32;100353.35;;;-1.08;72.67
62928;BME280;51070;52.236;-0.892;2024-01-16T01:24:57;100355.21;;;-1.03;72.47
62928;BME280;51070;52.236;-0.892;2024-01-16T01:27:23;100350.09;;;-0.99;72.54
62928;BME280;51070;52.236;-0.892;2024-01-16T01:29:48;100350.57;;;-0.95;72.38
62928;BME280;51070;52.236;-0.892;2024-01-16T01:32:13;100347.42;;;-0.91;72.24
62928;BME280;51070;52.236;-0.892;2024-01-16T01:34:41;100342.46;;;-0.89;72.15
62928;BME280;51070;52.236;-0.892;2024-01-16T01:37:07;100341.31;;;-0.89;72.26
62928;BME280;51070;52.236;-0.892;2024-01-16T01:39:32;100337.18;;;-0.87;72.33
62928;BME280;51070;52.236;-0.892;2024-01-16T01:41:58;100331.44;;;-0.87;72.24
62928;BME280;51070;52.236;-0.892;2024-01-16T01:44:23;100328.88;;;-0.87;72.17
62928;BME280;51070;52.236;-0.892;2024-01-16T01:46:50;100328.27;;;-0.88;72.72
62928;BME280;51070;52.236;-0.892;2024-01-16T01:49:16;100323.98;;;-0.89;72.70
62928;BME280;51070;52.236;-0.892;2024-01-16T01:51:42;100326.71;;;-0.89;72.73
62928;BME280;51070;52.236;-0.892;2024-01-16T01:54:08;100323.16;;;-0.91;72.62
62928;BME280;51070;52.236;-0.892;2024-01-16T01:56:35;100320.29;;;-0.94;72.78
62928;BME280;51070;52.236;-0.892;2024-01-16T01:59:01;100326.12;;;-0.95;73.21
62928;BME280;51070;52.236;-0.892;2024-01-16T02:01:29;100316.23;;;-0.95;73.51
62928;BME280;51070;52.236;-0.892;2024-01-16T02:03:57;100318.58;;;-0.96;73.63
62928;BME280;51070;52.236;-0.892;2024-01-16T02:06:24;100310.93;;;-0.96;74.03
62928;BME280;51070;52.236;-0.892;2024-01-16T02:08:51;100311.23;;;-0.97;73.70
62928;BME280;51070;52.236;-0.892;2024-01-16T02:11:17;100311.64;;;-0.98;74.15
62928;BME280;51070;52.236;-0.892;2024-01-16T02:13:42;100319.61;;;-0.98;74.52
62928;BME280;51070;52.236;-0.892;2024-01-16T02:16:21;100320.48;;;-0.98;74.69
62928;BME280;51070;52.236;-0.892;2024-01-16T02:18:47;100312.77;;;-0.99;74.81
62928;BME280;51070;52.236;-0.892;2024-01-16T02:21:16;100314.02;;;-1.00;74.67
62928;BME280;51070;52.236;-0.892;2024-01-16T02:23:43;100308.92;;;-1.00;74.89
62928;BME280;51070;52.236;-0.892;2024-01-16T02:26:09;100312.70;;;-1.00;75.21
62928;BME280;51070;52.236;-0.892;2024-01-16T02:28:35;100308.34;;;-0.99;75.29
62928;BME280;51070;52.236;-0.892;2024-01-16T02:31:00;100304.17;;;-0.98;75.63
62928;BME280;51070;52.236;-0.892;2024-01-16T02:33:26;100298.17;;;-0.96;75.60
62928;BME280;51070;52.236;-0.892;2024-01-16T02:35:51;100298.62;;;-0.93;75.65
62928;BME280;51070;52.236;-0.892;2024-01-16T02:38:17;100298.36;;;-0.89;75.76
62928;BME280;51070;52.236;-0.892;2024-01-16T02:40:42;100297.80;;;-0.85;76.32
62928;BME280;51070;52.236;-0.892;2024-01-16T02:43:07;100297.58;;;-0.81;76.00
62928;BME280;51070;52.236;-0.892;2024-01-16T02:45:33;100296.74;;;-0.78;76.17
62928;BME280;51070;52.236;-0.892;2024-01-16T02:47:59;100297.81;;;-0.75;76.20
62928;BME280;51070;52.236;-0.892;2024-01-16T02:50:24;100296.30;;;-0.72;76.37
62928;BME280;51070;52.236;-0.892;2024-01-16T02:52:50;100290.67;;;-0.71;76.70
62928;BME280;51070;52.236;-0.892;2024-01-16T02:55:16;100290.63;;;-0.69;76.65
62928;BME280;51070;52.236;-0.892;2024-01-16T02:57:41;100285.40;;;-0.68;76.67
62928;BME280;51070;52.236;-0.892;2024-01-16T03:00:07;100287.27;;;-0.68;76.62
62928;BME280;51070;52.236;-0.892;2024-01-16T03:02:33;100283.85;;;-0.69;76.45
62928;BME280;51070;52.236;-0.892;2024-01-16T03:04:59;100281.40;;;-0.70;76.72
62928;BME280;51070;52.236;-0.892;2024-01-16T03:07:24;100279.48;;;-0.71;76.78
62928;BME280;51070;52.236;-0.892;2024-01-16T03:09:50;100281.58;;;-0.72;77.14
62928;BME280;51070;52.236;-0.892;2024-01-16T03:12:16;100283.41;;;-0.73;77.16
62928;BME280;51070;52.236;-0.892;2024-01-16T03:14:42;100284.40;;;-0.73;77.15
62928;BME280;51070;52.236;-0.892;2024-01-16T03:17:08;100283.14;;;-0.74;77.29
62928;BME280;51070;52.236;-0.892;2024-01-16T03:19:33;100276.89;;;-0.76;77.12
62928;BME280;51070;52.236;-0.892;2024-01-16T03:21:58;100270.80;;;-0.78;77.57
62928;BME280;51070;52.236;-0.892;2024-01-16T03:24:24;100269.98;;;-0.80;77.93
62928;BME280;51070;52.236;-0.892;2024-01-16T03:26:49;100272.14;;;-0.80;78.01
62928;BME280;51070;52.236;-0.892;2024-01-16T03:29:14;100274.62;;;-0.82;78.03
62928;BME280;51070;52.236;-0.892;2024-01-16T03:31:40;100275.70;;;-0.80;78.31
62928;BME280;51070;52.236;-0.892;2024-01-16T03:34:05;100275.33;;;-0.79;78.68
62928;BME280;51070;52.236;-0.892;2024-01-16T03:36:33;100274.71;;;-0.76;78.89
62928;BME280;51070;52.236;-0.892;2024-01-16T03:38:59;100272.80;;;-0.74;78.88
62928;BME280;51070;52.236;-0.892;2024-01-16T03:41:24;100272.95;;;-0.69;79.18
62928;BME280;51070;52.236;-0.892;2024-01-16T03:43:50;100270.11;;;-0.66;79.07
62928;BME280;51070;52.236;-0.892;2024-01-16T03:46:15;100262.41;;;-0.64;79.19
62928;BME280;51070;52.236;-0.892;2024-01-16T03:48:40;100266.59;;;-0.63;78.87
62928;BME280;51070;52.236;-0.892;2024-01-16T03:51:06;100261.43;;;-0.64;78.89
62928;BME280;51070;52.236;-0.892;2024-01-16T03:53:34;100252.59;;;-0.64;79.65
62928;BME280;51070;52.236;-0.892;2024-01-16T03:56:00;100251.30;;;-0.63;79.30
62928;BME280;51070;52.236;-0.892;2024-01-16T03:58:25;100249.88;;;-0.62;79.10
62928;BME280;51070;52.236;-0.892;2024-01-16T04:00:50;100249.75;;;-0.64;79.28
62928;BME280;51070;52.236;-0.892;2024-01-16T04:03:18;100252.26;;;-0.64;79.29
62928;BME280;51070;52.236;-0.892;2024-01-16T04:05:43;100252.19;;;-0.65;79.24
62928;BME280;51070;52.236;-0.892;2024-01-16T04:08:09;100250.63;;;-0.66;79.49
62928;BME280;51070;52.236;-0.892;2024-01-16T04:10:35;100235.25;;;-0.67;79.80
62928;BME280;51070;52.236;-0.892;2024-01-16T04:13:01;100235.21;;;-0.68;79.96
62928;BME280;51070;52.236;-0.892;2024-01-16T04:15:27;100232.04;;;-0.69;79.88
62928;BME280;51070;52.236;-0.892;2024-01-16T04:17:52;100223.94;;;-0.69;79.79
62928;BME280;51070;52.236;-0.892;2024-01-16T04:20:18;100217.83;;;-0.69;79.73
62928;BME280;51070;52.236;-0.892;2024-01-16T04:22:43;100213.23;;;-0.69;79.88
62928;BME280;51070;52.236;-0.892;2024-01-16T04:25:08;100213.67;;;-0.70;79.58
62928;BME280;51070;52.236;-0.892;2024-01-16T04:27:34;100209.77;;;-0.70;79.57
62928;BME280;51070;52.236;-0.892;2024-01-16T04:30:00;100212.14;;;-0.68;79.52
62928;BME280;51070;52.236;-0.892;2024-01-16T04:32:25;100213.08;;;-0.64;79.91
62928;BME280;51070;52.236;-0.892;2024-01-16T04:34:51;100214.55;;;-0.60;80.03
62928;BME280;51070;52.236;-0.892;2024-01-16T04:37:16;100207.55;;;-0.56;79.82
62928;BME280;51070;52.236;-0.892;2024-01-16T04:39:42;100204.72;;;-0.52;79.88
62928;BME280;51070;52.236;-0.892;2024-01-16T04:42:07;100197.95;;;-0.49;80.15
62928;BME280;51070;52.236;-0.892;2024-01-16T04:44:33;100196.23;;;-0.47;79.84
62928;BME280;51070;52.236;-0.892;2024-01-16T04:46:58;100191.87;;;-0.46;79.75
62928;BME280;51070;52.236;-0.892;2024-01-16T04:49:23;100196.16;;;-0.46;79.59
62928;BME280;51070;52.236;-0.892;2024-01-16T04:51:49;100193.84;;;-0.45;79.82
62928;BME280;51070;52.236;-0.892;2024-01-16T04:54:14;100189.48;;;-0.44;79.81
62928;BME280;51070;52.236;-0.892;2024-01-16T04:56:39;100185.80;;;-0.46;79.69
62928;BME280;51070;52.236;-0.892;2024-01-16T04:59:05;100187.86;;;-0.48;79.37
62928;BME280;51070;52.236;-0.892;2024-01-16T05:01:30;100189.91;;;-0.51;79.30
62928;BME280;51070;52.236;-0.892;2024-01-16T05:03:56;100190.30;;;-0.52;79.36
62928;BME280;51070;52.236;-0.892;2024-01-16T05:06:21;100183.81;;;-0.55;79.49
62928;BME280;51070;52.236;-0.892;2024-01-16T05:08:47;100180.65;;;-0.59;79.37
62928;BME280;51070;52.236;-0.892;2024-01-16T05:11:12;100176.61;;;-0.61;79.51
62928;BME280;51070;52.236;-0.892;2024-01-16T05:13:38;100170.59;;;-0.62;79.67
62928;BME280;51070;52.236;-0.892;2024-01-16T05:16:05;100171.52;;;-0.63;79.90
62928;BME280;51070;52.236;-0.892;2024-01-16T05:18:31;100171.19;;;-0.63;80.16
62928;BME280;51070;52.236;-0.892;2024-01-16T05:20:58;100167.75;;;-0.64;80.02
62928;BME280;51070;52.236;-0.892;2024-01-16T05:23:24;100163.63;;;-0.65;80.19
62928;BME280;51070;52.236;-0.892;2024-01-16T05:25:49;100163.41;;;-0.63;80.42
62928;BME280;51070;52.236;-0.892;2024-01-16T05:28:15;100158.86;;;-0.60;80.29
62928;BME280;51070;52.236;-0.892;2024-01-16T05:30:40;100160.33;;;-0.58;80.13
62928;BME280;51070;52.236;-0.892;2024-01-16T05:33:05;100161.17;;;-0.53;80.38
62928;BME280;51070;52.236;-0.892;2024-01-16T05:35:32;100157.54;;;-0.50;80.34
62928;BME280;51070;52.236;-0.892;2024-01-16T05:37:58;100152.77;;;-0.45;80.37
62928;BME280;51070;52.236;-0.892;2024-01-16T05:40:25;100145.16;;;-0.42;80.14
62928;BME280;51070;52.236;-0.892;2024-01-16T05:42:51;100143.16;;;-0.38;80.14
62928;BME280;51070;52.236;-0.892;2024-01-16T05:45:17;100148.91;;;-0.36;79.62
62928;BME280;51070;52.236;-0.892;2024-01-16T05:47:42;100146.12;;;-0.35;79.94
62928;BME280;51070;52.236;-0.892;2024-01-16T05:50:11;100137.25;;;-0.35;79.88
62928;BME280;51070;52.236;-0.892;2024-01-16T05:52:36;100131.35;;;-0.37;79.37
62928;BME280;51070;52.236;-0.892;2024-01-16T05:55:02;100130.58;;;-0.42;79.34
62928;BME280;51070;52.236;-0.892;2024-01-16T05:57:29;100130.83;;;-0.46;79.51
62928;BME280;51070;52.236;-0.892;2024-01-16T05:59:58;100134.90;;;-0.51;79.55
62928;BME280;51070;52.236;-0.892;2024-01-16T06:02:24;100132.58;;;-0.55;79.72
62928;BME280;51070;52.236;-0.892;2024-01-16T06:04:49;100131.02;;;-0.57;79.75
62928;BME280;51070;52.236;-0.892;2024-01-16T06:07:15;100132.39;;;-0.60;79.80
62928;BME280;51070;52.236;-0.892;2024-01-16T06:09:41;100131.74;;;-0.62;79.96
62928;BME280;51070;52.236;-0.892;2024-01-16T06:12:07;100130.54;;;-0.60;80.12
62928;BME280;51070;52.236;-0.892;2024-01-16T06:14:34;100127.39;;;-0.56;80.42
62928;BME280;51070;52.236;-0.892;2024-01-16T06:17:00;100124.48;;;-0.51;80.61
62928;BME280;51070;52.236;-0.892;2024-01-16T06:19:25;100124.69;;;-0.48;80.44
62928;BME280;51070;52.236;-0.892;2024-01-16T06:21:51;100129.56;;;-0.46;80.43
62928;BME280;51070;52.236;-0.892;2024-01-16T06:24:16;100129.16;;;-0.45;80.51
62928;BME280;51070;52.236;-0.892;2024-01-16T06:26:41;100129.48;;;-0.42;80.70
62928;BME280;51070;52.236;-0.892;2024-01-16T06:29:10;100131.09;;;-0.39;81.19
62928;BME280;51070;52.236;-0.892;2024-01-16T06:31:36;100123.61;;;-0.36;80.77
62928;BME280;51070;52.236;-0.892;2024-01-16T06:34:01;100121.78;;;-0.36;80.77
62928;BME280;51070;52.236;-0.892;2024-01-16T06:36:27;100122.11;;;-0.38;80.37
62928;BME280;51070;52.236;-0.892;2024-01-16T06:38:52;100116.04;;;-0.43;80.43
62928;BME280;51070;52.236;-0.892;2024-01-16T06:41:18;100116.70;;;-0.46;80.71
62928;BME280;51070;52.236;-0.892;2024-01-16T06:43:43;100113.89;;;-0.47;80.94
62928;BME280;51070;52.236;-0.892;2024-01-16T06:46:09;100116.66;;;-0.49;81.02
62928;BME280;51070;52.236;-0.892;2024-01-16T06:48:36;100116.09;;;-0.50;81.16
62928;BME280;51070;52.236;-0.892;2024-01-16T06:51:05;100114.54;;;-0.53;80.98
62928;BME280;51070;52.236;-0.892;2024-01-16T06:53:30;100117.77;;;-0.56;80.87
62928;BME280;51070;52.236;-0.892;2024-01-16T06:55:56;100115.97;;;-0.57;80.90
62928;BME280;51070;52.236;-0.892;2024-01-16T06:58:22;100118.25;;;-0.58;81.30
62928;BME280;51070;52.236;-0.892;2024-01-16T07:00:48;100116.52;;;-0.56;81.48
62928;BME280;51070;52.236;-0.892;2024-01-16T07:03:13;100118.23;;;-0.56;81.25
62928;BME280;51070;52.236;-0.892;2024-01-16T07:05:39;100114.40;;;-0.55;81.43
62928;BME280;51070;52.236;-0.892;2024-01-16T07:08:08;100108.15;;;-0.55;81.60
62928;BME280;51070;52.236;-0.892;2024-01-16T07:10:34;100108.29;;;-0.55;81.54
62928;BME280;51070;52.236;-0.892;2024-01-16T07:13:01;100109.38;;;-0.57;81.50
62928;BME280;51070;52.236;-0.892;2024-01-16T07:15:28;100104.55;;;-0.58;81.45
62928;BME280;51070;52.236;-0.892;2024-01-16T07:17:53;100096.34;;;-0.58;81.32
62928;BME280;51070;52.236;-0.892;2024-01-16T07:20:19;100096.12;;;-0.59;81.38
62928;BME280;51070;52.236;-0.892;2024-01-16T07:22:45;100090.44;;;-0.61;81.47
62928;BME280;51070;52.236;-0.892;2024-01-16T07:25:11;100090.15;;;-0.62;81.34
62928;BME280;51070;52.236;-0.892;2024-01-16T07:27:36;100087.85;;;-0.64;81.19
62928;BME280;51070;52.236;-0.892;2024-01-16T07:30:05;100082.81;;;-0.66;81.49
62928;BME280;51070;52.236;-0.892;2024-01-16T07:32:31;100085.23;;;-0.65;81.34
62928;BME280;51070;52.236;-0.892;2024-01-16T07:34:57;100090.11;;;-0.63;81.22
62928;BME280;51070;52.236;-0.892;2024-01-16T07:37:22;100089.71;;;-0.59;81.44
62928;BME280;51070;52.236;-0.892;2024-01-16T07:39:48;100086.95;;;-0.52;81.62
62928;BME280;51070;52.236;-0.892;2024-01-16T07:42:13;100080.69;;;-0.47;81.78
62928;BME280;51070;52.236;-0.892;2024-01-16T07:44:39;100077.98;;;-0.41;82.18
62928;BME280;51070;52.236;-0.892;2024-01-16T07:47:05;100081.80;;;-0.34;82.07
62928;BME280;51070;52.236;-0.892;2024-01-16T07:49:30;100078.71;;;-0.29;81.90
62928;BME280;51070;52.236;-0.892;2024-01-16T07:51:56;100079.08;;;-0.27;81.45
62928;BME280;51070;52.236;-0.892;2024-01-16T07:54:21;100078.06;;;-0.26;81.17
62928;BME280;51070;52.236;-0.892;2024-01-16T07:56:47;100078.20;;;-0.27;81.20
62928;BME280;51070;52.236;-0.892;2024-01-16T07:59:12;100074.46;;;-0.27;81.21
62928;BME280;51070;52.236;-0.892;2024-01-16T08:01:39;100072.03;;;-0.28;81.16
62928;BME280;51070;52.236;-0.892;2024-01-16T08:04:04;100066.91;;;-0.28;80.95
62928;BME280;51070;52.236;-0.892;2024-01-16T08:06:30;100063.39;;;-0.30;81.29
62928;BME280;51070;52.236;-0.892;2024-01-16T08:08:55;100061.33;;;-0.30;81.39
62928;BME280;51070;52.236;-0.892;2024-01-16T08:11:21;100059.21;;;-0.32;81.33
62928;BME280;51070;52.236;-0.892;2024-01-16T08:13:47;100058.91;;;-0.31;81.51
62928;BME280;51070;52.236;-0.892;2024-01-16T08:16:12;100060.59;;;-0.31;81.39
62928;BME280;51070;52.236;-0.892;2024-01-16T08:18:37;100059.77;;;-0.31;81.16
62928;BME280;51070;52.236;-0.892;2024-01-16T08:21:03;100061.66;;;-0.28;81.27
62928;BME280;51070;52.236;-0.892;2024-01-16T08:23:28;100062.06;;;-0.25;81.27
62928;BME280;51070;52.236;-0.892;2024-01-16T08:25:54;100057.92;;;-0.20;81.54
62928;BME280;51070;52.236;-0.892;2024-01-16T08:28:20;100059.05;;;-0.16;81.49
62928;BME280;51070;52.236;-0.892;2024-01-16T08:30:46;100056.75;;;-0.12;81.36
62928;BME280;51070;52.236;-0.892;2024-01-16T08:33:12;100051.52;;;-0.12;81.10
62928;BME280;51070;52.236;-0.892;2024-01-16T08:35:38;100047.88;;;-0.13;80.65
62928;BME280;51070;52.236;-0.892;2024-01-16T08:38:03;100048.05;;;-0.15;81.06
62928;BME280;51070;52.236;-0.892;2024-01-16T08:40:30;100049.48;;;-0.17;80.74
62928;BME280;51070;52.236;-0.892;2024-01-16T08:42:56;100047.99;;;-0.19;80.66
62928;BME280;51070;52.236;-0.892;2024-01-16T08:45:21;100048.73;;;-0.20;80.67
62928;BME280;51070;52.236;-0.892;2024-01-16T08:47:47;100050.45;;;-0.20;80.39
62928;BME280;51070;52.236;-0.892;2024-01-16T08:50:13;100046.61;;;-0.19;80.52
62928;BME280;51070;52.236;-0.892;2024-01-16T08:52:38;100044.02;;;-0.17;80.26
62928;BME280;51070;52.236;-0.892;2024-01-16T08:55:04;100039.77;;;-0.17;80.18
62928;BME280;51070;52.236;-0.892;2024-01-16T08:57:30;100036.75;;;-0.17;80.53
62928;BME280;51070;52.236;-0.892;2024-01-16T08:59:55;100040.07;;;-0.13;80.50
62928;BME280;51070;52.236;-0.892;2024-01-16T09:02:21;100031.42;;;-0.10;80.67
62928;BME280;51070;52.236;-0.892;2024-01-16T09:04:47;100026.97;;;-0.05;80.65
62928;BME280;51070;52.236;-0.892;2024-01-16T09:07:16;100030.33;;;-0.00;80.50
62928;BME280;51070;52.236;-0.892;2024-01-16T09:09:42;100025.94;;;0.03;80.49
62928;BME280;51070;52.236;-0.892;2024-01-16T09:12:10;100025.24;;;0.06;80.36
62928;BME280;51070;52.236;-0.892;2024-01-16T09:14:36;100024.48;;;0.07;80.13
62928;BME280;51070;52.236;-0.892;2024-01-16T09:17:02;100026.45;;;0.06;79.69
62928;BME280;51070;52.236;-0.892;2024-01-16T09:19:28;100023.73;;;0.06;79.28
62928;BME280;51070;52.236;-0.892;2024-01-16T09:21:55;100022.77;;;0.07;79.23
62928;BME280;51070;52.236;-0.892;2024-01-16T09:24:21;100019.79;;;0.08;78.76
62928;BME280;51070;52.236;-0.892;2024-01-16T09:26:46;100016.68;;;0.10;79.10
62928;BME280;51070;52.236;-0.892;2024-01-16T09:29:12;100015.95;;;0.12;78.97
62928;BME280;51070;52.236;-0.892;2024-01-16T09:31:40;100015.19;;;0.13;78.75
62928;BME280;51070;52.236;-0.892;2024-01-16T09:34:06;100019.58;;;0.16;78.65
62928;BME280;51070;52.236;-0.892;2024-01-16T09:36:31;100018.84;;;0.20;78.91
62928;BME280;51070;52.236;-0.892;2024-01-16T09:38:56;100015.75;;;0.27;79.34
62928;BME280;51070;52.236;-0.892;2024-01-16T09:41:23;100014.94;;;0.34;78.91
62928;BME280;51070;52.236;-0.892;2024-01-16T09:43:50;100009.48;;;0.42;78.92
62928;BME280;51070;52.236;-0.892;2024-01-16T09:46:17;100010.73;;;0.51;78.44
62928;BME280;51070;52.236;-0.892;2024-01-16T09:48:45;100009.19;;;0.60;78.23
62928;BME280;51070;52.236;-0.892;2024-01-16T09:51:13;100010.39;;;0.65;77.86
62928;BME280;51070;52.236;-0.892;2024-01-16T09:53:43;100009.69;;;0.71;77.74
62928;BME280;51070;52.236;-0.892;2024-01-16T09:56:14;100006.23;;;0.78;77.38
62928;BME280;51070;52.236;-0.892;2024-01-16T09:58:46;99995.99;;;0.89;77.20
62928;BME280;51070;52.236;-0.892;2024-01-16T10:01:14;99994.45;;;1.01;77.07
62928;BME280;51070;52.236;-0.892;2024-01-16T10:03:44;99990.77;;;1.11;76.97
62928;BME280;51070;52.236;-0.892;2024-01-16T10:06:11;99990.09;;;1.19;77.00
62928;BME280;51070;52.236;-0.892;2024-01-16T10:08:37;99980.34;;;1.24;76.12
62928;BME280;51070;52.236;-0.892;2024-01-16T10:11:03;99975.02;;;1.26;75.85
62928;BME280;51070;52.236;-0.892;2024-01-16T10:13:29;99971.55;;;1.31;76.10
62928;BME280;51070;52.236;-0.892;2024-01-16T10:15:55;99968.06;;;1.36;75.88
62928;BME280;51070;52.236;-0.892;2024-01-16T10:20:50;99966.62;;;1.46;75.25
62928;BME280;51070;52.236;-0.892;2024-01-16T10:23:23;99969.40;;;1.50;75.29
62928;BME280;51070;52.236;-0.892;2024-01-16T10:28:33;99967.73;;;1.54;75.01
62928;BME280;51070;52.236;-0.892;2024-01-16T10:31:03;99962.38;;;1.56;75.07
62928;BME280;51070;52.236;-0.892;2024-01-16T10:33:29;99957.59;;;1.62;75.47
62928;BME280;51070;52.236;-0.892;2024-01-16T10:36:12;99955.37;;;1.71;75.42
62928;BME280;51070;52.236;-0.892;2024-01-16T10:38:42;99951.42;;;1.83;75.50
62928;BME280;51070;52.236;-0.892;2024-01-16T10:41:17;99952.80;;;1.92;74.95
62928;BME280;51070;52.236;-0.892;2024-01-16T10:43:43;99951.63;;;2.02;75.18
62928;BME280;51070;52.236;-0.892;2024-01-16T10:48:39;99943.19;;;2.17;74.66
62928;BME280;51070;52.236;-0.892;2024-01-16T10:51:18;99947.31;;;2.23;74.54
62928;BME280;51070;52.236;-0.892;2024-01-16T10:53:45;99941.27;;;2.32;74.26
62928;BME280;51070;52.236;-0.892;2024-01-16T10:56:12;99934.61;;;2.38;73.94
62928;BME280;51070;52.236;-0.892;2024-01-16T10:58:41;99930.80;;;2.40;73.98
62928;BME280;51070;52.236;-0.892;2024-01-16T11:01:11;99925.60;;;2.38;74.21
62928;BME280;51070;52.236;-0.892;2024-01-16T11:06:07;99915.46;;;2.34;74.88
62928;BME280;51070;52.236;-0.892;2024-01-16T11:08:36;99922.09;;;2.50;75.27
62928;BME280;51070;52.236;-0.892;2024-01-16T11:11:02;99922.00;;;2.75;74.90
62928;BME280;51070;52.236;-0.892;2024-01-16T11:13:36;99918.12;;;2.96;74.41
62928;BME280;51070;52.236;-0.892;2024-01-16T11:16:04;99915.73;;;3.17;73.86
62928;BME280;51070;52.236;-0.892;2024-01-16T11:18:31;99917.63;;;3.25;73.15
62928;BME280;51070;52.236;-0.892;2024-01-16T11:21:02;99916.41;;;3.35;73.01
62928;BME280;51070;52.236;-0.892;2024-01-16T11:23:29;99911.30;;;3.53;72.72
62928;BME280;51070;52.236;-0.892;2024-01-16T11:25:55;99906.20;;;3.64;72.54
62928;BME280;51070;52.236;-0.892;2024-01-16T11:28:27;99894.48;;;3.80;72.59
62928;BME280;51070;52.236;-0.892;2024-01-16T11:30:53;99889.98;;;4.02;71.99
62928;BME280;51070;52.236;-0.892;2024-01-16T11:33:41;99884.98;;;4.20;71.71
62928;BME280;51070;52.236;-0.892;2024-01-16T11:36:43;99885.42;;;4.34;70.21
62928;BME280;51070;52.236;-0.892;2024-01-16T11:39:20;99881.84;;;4.42;69.79
62928;BME280;51070;52.236;-0.892;2024-01-16T11:41:57;99880.98;;;4.46;69.20
62928;BME280;51070;52.236;-0.892;2024-01-16T11:44:48;99880.73;;;4.48;69.21
62928;BME280;51070;52.236;-0.892;2024-01-16T11:47:21;99883.61;;;4.56;69.21
62928;BME280;51070;52.236;-0.892;2024-01-16T11:49:48;99881.96;;;4.61;69.05
62928;BME280;51070;52.236;-0.892;2024-01-16T11:52:14;99877.66;;;4.60;69.49
62928;BME280;51070;52.236;-0.892;2024-01-16T11:54:40;99873.08;;;4.57;69.76
62928;BME280;51070;52.236;-0.892;2024-01-16T11:57:36;99874.34;;;4.59;69.75
62928;BME280;51070;52.236;-0.892;2024-01-16T12:00:32;99868.84;;;4.54;69.07
62928;BME280;51070;52.236;-0.892;2024-01-16T12:03:02;99864.52;;;4.49;68.98
62928;BME280;51070;52.236;-0.892;2024-01-16T12:05:28;99861.38;;;4.52;69.16
62928;BME280;51070;52.236;-0.892;2024-01-16T12:07:54;99856.95;;;4.56;69.27
62928;BME280;51070;52.236;-0.892;2024-01-16T12:10:22;99855.36;;;4.59;69.29
62928;BME280;51070;52.236;-0.892;2024-01-16T12:12:48;99848.56;;;4.60;69.22
62928;BME280;51070;52.236;-0.892;2024-01-16T12:15:19;99841.92;;;4.61;69.09
62928;BME280;51070;52.236;-0.892;2024-01-16T12:18:20;99837.86;;;4.62;69.28
62928;BME280;51070;52.236;-0.892;2024-01-16T12:20:45;99832.18;;;4.65;69.29
62928;BME280;51070;52.236;-0.892;2024-01-16T12:23:10;99827.59;;;4.71;69.59
62928;BME280;51070;52.236;-0.892;2024-01-16T12:25:37;99825.03;;;4.75;68.93
62928;BME280;51070;52.236;-0.892;2024-01-16T12:28:05;99825.14;;;4.77;69.08
62928;BME280;51070;52.236;-0.892;2024-01-16T12:30:32;99819.83;;;4.77;68.86
62928;BME280;51070;52.236;-0.892;2024-01-16T12:33:08;99820.70;;;4.78;69.12
62928;BME280;51070;52.236;-0.892;2024-01-16T12:35:36;99808.89;;;4.78;69.00
62928;BME280;51070;52.236;-0.892;2024-01-16T12:38:12;99804.64;;;4.78;68.88
62928;BME280;51070;52.236;-0.892;2024-01-16T12:40:44;99791.91;;;4.77;68.70
62928;BME280;51070;52.236;-0.892;2024-01-16T12:43:11;99781.34;;;4.78;68.98
62928;BME280;51070;52.236;-0.892;2024-01-16T12:45:37;99772.33;;;4.80;68.75
62928;BME280;51070;52.236;-0.892;2024-01-16T12:48:03;99764.84;;;4.84;69.24
62928;BME280;51070;52.236;-0.892;2024-01-16T12:50:30;99764.10;;;4.92;69.22
62928;BME280;51070;52.236;-0.892;2024-01-16T12:55:29;99747.98;;;4.91;68.39
62928;BME280;51070;52.236;-0.892;2024-01-16T13:00:46;99728.50;;;4.88;67.93